Time;durP1;ratioP1;P1;durP2;ratioP2;P2;SDS_P1;SDS_P2;PMS_P1;PMS_P2;Temp;Humidity;BMP_temperature;BMP_pressure;BME280_temperature;BME280_humidity;BME280_pressure;Samples;Min_cycle;Max_cycle;Signal;HPM_P1;HPM_P2
2022/06/11 00:02:20;;;;;;;1.00;0.80;;;21.50;54.60;;;;;;6211653;28;20089;-71
2022/06/11 00:05:21;;;;;;;0.60;0.60;;;21.50;54.60;;;;;;6194292;28;20505;-71
2022/06/11 00:08:22;;;;;;;1.08;0.70;;;21.50;54.60;;;;;;6209200;28;20071;-72
2022/06/11 00:11:24;;;;;;;0.98;0.60;;;21.50;54.70;;;;;;6216826;28;20026;-71
2022/06/11 00:14:27;;;;;;;0.95;0.73;;;21.50;54.60;;;;;;6200263;28;20029;-71
2022/06/11 00:17:28;;;;;;;0.70;0.60;;;21.50;54.60;;;;;;6205041;28;20030;-71
2022/06/11 00:20:30;;;;;;;0.75;0.55;;;21.50;54.60;;;;;;6223878;28;20435;-71
2022/06/11 00:23:31;;;;;;;0.82;0.77;;;21.50;54.60;;;;;;6209496;28;20037;-71
2022/06/11 00:26:32;;;;;;;0.55;0.45;;;21.50;54.60;;;;;;6198958;28;20022;-70
2022/06/11 00:29:35;;;;;;;0.63;0.50;;;21.50;54.60;;;;;;6221020;28;20024;-71
2022/06/11 00:32:36;;;;;;;1.08;0.73;;;21.50;54.70;;;;;;6217520;28;20021;-72
2022/06/11 00:35:39;;;;;;;0.90;0.70;;;21.50;54.60;;;;;;6198952;28;20474;-71
2022/06/11 00:38:40;;;;;;;0.50;0.50;;;21.50;54.60;;;;;;6198305;28;20069;-71
2022/06/11 00:41:44;;;;;;;0.63;0.52;;;21.50;54.60;;;;;;6198925;28;20024;-71
2022/06/11 00:44:45;;;;;;;0.80;0.52;;;21.50;54.60;;;;;;6219550;28;20058;-71
2022/06/11 00:47:59;;;;;;;0.50;0.50;;;21.50;54.60;;;;;;6218494;28;20045;-71
2022/06/11 00:51:11;;;;;;;0.80;0.60;;;21.50;54.60;;;;;;6198810;28;20029;-71
2022/06/11 00:54:17;;;;;;;1.05;0.80;;;21.50;54.60;;;;;;6199784;28;20384;-71
2022/06/11 00:57:18;;;;;;;0.50;0.50;;;21.50;54.60;;;;;;6198636;28;20039;-71
2022/06/11 01:00:41;;;;;;;1.15;0.60;;;21.50;54.60;;;;;;6222012;28;20026;-71
2022/06/11 01:03:44;;;;;;;0.88;0.70;;;21.50;54.60;;;;;;6209259;28;20065;-71
2022/06/11 01:06:53;;;;;;;0.95;0.80;;;21.50;54.60;;;;;;6221026;28;20026;-71
2022/06/11 01:10:44;;;;;;;0.95;0.70;;;21.50;54.60;;;;;;6201932;28;20092;-70
2022/06/11 01:14:22;;;;;;;0.82;0.60;;;21.50;54.60;;;;;;6192297;28;20037;-70
2022/06/11 01:17:53;;;;;;;0.50;0.50;;;21.50;54.60;;;;;;6221393;28;20065;-71
2022/06/11 01:21:11;;;;;;;0.85;0.50;;;21.50;54.60;;;;;;6186463;28;20049;-71
2022/06/11 01:24:57;;;;;;;1.10;0.70;;;21.50;55.30;;;;;;6207850;28;20025;-72
2022/06/11 01:28:17;;;;;;;;;;;21.50;54.60;;;;;;6211616;28;20042;-71
2022/06/11 01:31:37;;;;;;;0.55;0.55;;;21.50;54.60;;;;;;6197384;28;19905;-71
2022/06/11 01:34:51;;;;;;;0.70;0.60;;;21.50;54.60;;;;;;6196506;28;20560;-70
2022/06/11 01:38:03;;;;;;;0.93;0.65;;;21.50;54.70;;;;;;6197258;28;20077;-71
2022/06/11 01:41:28;;;;;;;0.60;0.60;;;21.50;54.70;;;;;;6197824;28;20088;-71
2022/06/11 01:44:37;;;;;;;0.80;0.60;;;21.50;54.70;;;;;;6197280;28;20029;-71
2022/06/11 01:47:37;;;;;;;0.88;0.60;;;21.50;54.70;;;;;;6197214;28;20262;-70
2022/06/11 01:50:45;;;;;;;0.40;0.40;;;21.50;54.60;;;;;;6217357;28;20026;-71
2022/06/11 01:54:14;;;;;;;0.60;0.60;;;21.50;54.70;;;;;;6217750;28;20037;-72
2022/06/11 01:57:34;;;;;;;0.50;0.40;;;21.50;54.70;;;;;;6197471;28;20035;-71
2022/06/11 02:00:43;;;;;;;0.70;0.70;;;21.50;54.70;;;;;;6195391;28;20473;-71
2022/06/11 02:04:04;;;;;;;0.77;0.60;;;21.50;54.60;;;;;;6199098;28;20022;-71
2022/06/11 02:07:25;;;;;;;0.82;0.68;;;21.50;54.60;;;;;;6221743;28;20026;-70
2022/06/11 02:10:39;;;;;;;0.55;0.50;;;21.50;54.60;;;;;;6205842;28;20049;-70
2022/06/11 02:13:55;;;;;;;0.70;0.60;;;21.50;54.70;;;;;;6196528;28;20601;-71
2022/06/11 02:17:00;;;;;;;0.68;0.60;;;21.50;54.60;;;;;;6219507;28;20033;-70
2022/06/11 02:20:23;;;;;;;1.17;0.60;;;21.50;54.70;;;;;;6210151;28;20421;-71
2022/06/11 02:23:40;;;;;;;1.05;0.60;;;21.50;54.70;;;;;;6196566;28;20105;-71
2022/06/11 02:26:46;;;;;;;0.60;0.55;;;21.50;54.70;;;;;;6218789;28;20029;-70
2022/06/11 02:29:48;;;;;;;0.85;0.70;;;21.50;54.70;;;;;;6213454;28;20105;-71
2022/06/11 02:32:49;;;;;;;0.63;0.57;;;21.50;54.70;;;;;;6179190;28;20545;-71
2022/06/11 02:35:50;;;;;;;0.65;0.60;;;21.50;54.70;;;;;;6193987;28;20077;-72
2022/06/11 02:38:51;;;;;;;1.17;0.75;;;21.50;54.70;;;;;;6195593;28;20046;-71
2022/06/11 02:41:52;;;;;;;0.60;0.60;;;21.50;54.70;;;;;;6217701;28;20058;-70
2022/06/11 02:44:54;;;;;;;0.50;0.50;;;21.50;54.70;;;;;;6212616;28;20372;-71
2022/06/11 02:47:54;;;;;;;0.50;0.40;;;21.50;54.70;;;;;;6195186;28;20137;-70
2022/06/11 02:50:55;;;;;;;1.25;0.80;;;21.50;54.70;;;;;;6208146;28;20485;-71
2022/06/11 02:53:57;;;;;;;0.98;0.63;;;21.50;55.40;;;;;;6218754;28;20026;-70
2022/06/11 02:57:00;;;;;;;1.38;0.80;;;21.50;54.70;;;;;;6197236;28;20437;-71
2022/06/11 03:00:01;;;;;;;0.65;0.50;;;21.50;54.70;;;;;;6199191;28;20036;-71
2022/06/11 03:03:02;;;;;;;0.75;0.60;;;21.50;54.70;;;;;;6218559;28;20033;-71
2022/06/11 03:06:04;;;;;;;1.15;0.70;;;21.50;54.70;;;;;;6219790;28;20497;-71
2022/06/11 03:09:05;;;;;;;1.02;0.70;;;21.50;54.70;;;;;;6219274;28;20021;-71
2022/06/11 03:12:08;;;;;;;1.27;0.70;;;21.50;54.70;;;;;;6197922;28;20042;-71
2022/06/11 03:15:11;;;;;;;1.58;0.80;;;21.50;54.70;;;;;;6198193;28;20034;-71
2022/06/11 03:18:11;;;;;;;0.75;0.68;;;21.50;54.70;;;;;;6218450;28;20504;-71
2022/06/11 03:21:12;;;;;;;0.80;0.50;;;21.50;54.70;;;;;;6206126;28;20034;-71
2022/06/11 03:24:13;;;;;;;1.00;0.65;;;21.50;54.70;;;;;;6194226;28;20023;-71
2022/06/11 03:27:15;;;;;;;0.70;0.68;;;21.50;54.70;;;;;;6214843;28;20029;-71
2022/06/11 03:30:18;;;;;;;0.90;0.65;;;21.50;54.70;;;;;;6215639;28;20030;-71
2022/06/11 03:33:20;;;;;;;0.50;0.50;;;21.50;54.70;;;;;;6195499;28;20429;-70
2022/06/11 03:36:21;;;;;;;0.77;0.60;;;21.50;54.70;;;;;;6192915;28;20254;-71
2022/06/11 03:39:21;;;;;;;0.70;0.60;;;21.50;54.70;;;;;;6195026;28;20540;-71
2022/06/11 03:42:22;;;;;;;0.50;0.45;;;21.50;54.70;;;;;;6213363;28;20033;-71
2022/06/11 03:45:23;;;;;;;0.60;0.57;;;21.50;54.70;;;;;;6217246;28;20026;-71
2022/06/11 03:48:24;;;;;;;0.60;0.50;;;21.50;54.70;;;;;;6194838;28;20058;-71
2022/06/11 03:51:25;;;;;;;0.85;0.75;;;21.50;54.70;;;;;;6204375;28;20021;-71
2022/06/11 03:54:26;;;;;;;0.60;0.50;;;21.50;54.80;;;;;;6218941;28;20494;-71
2022/06/11 03:57:27;;;;;;;0.70;0.60;;;21.50;54.70;;;;;;6200503;28;20037;-71
2022/06/11 04:04:00;;;;;;;0.93;0.60;;;21.50;54.70;;;;;;6194749;28;20066;-71
2022/06/11 04:07:02;;;;;;;0.63;0.63;;;21.50;54.70;;;;;;6206616;28;20064;-70
2022/06/11 04:10:04;;;;;;;0.80;0.60;;;21.50;54.70;;;;;;6217280;28;20551;-70
2022/06/11 04:13:08;;;;;;;1.27;0.68;;;21.50;54.70;;;;;;6197796;28;20022;-71
2022/06/11 04:16:20;;;;;;;0.90;0.52;;;21.50;54.70;;;;;;6198672;28;20026;-71
2022/06/11 04:19:24;;;;;;;0.73;0.50;;;21.50;54.70;;;;;;6218810;28;20068;-70
2022/06/11 04:22:25;;;;;;;0.57;0.40;;;21.50;54.70;;;;;;6202810;28;20113;-71
2022/06/11 04:25:26;;;;;;;0.93;0.68;;;21.50;54.70;;;;;;6193160;28;20400;-71
2022/06/11 04:28:30;;;;;;;0.80;0.65;;;21.50;54.70;;;;;;6214807;28;20032;-71
2022/06/11 04:31:32;;;;;;;0.80;0.65;;;21.50;54.70;;;;;;6211820;28;20029;-71
2022/06/11 04:34:34;;;;;;;0.90;0.63;;;21.50;54.70;;;;;;6192998;28;20047;-71
2022/06/11 04:37:34;;;;;;;0.93;0.80;;;21.50;54.70;;;;;;6193330;28;20073;-70
2022/06/11 04:40:35;;;;;;;1.23;0.70;;;21.50;54.70;;;;;;6193114;28;20473;-71
2022/06/11 04:43:36;;;;;;;0.90;0.70;;;21.50;54.80;;;;;;6214046;28;20029;-71
2022/06/11 04:46:37;;;;;;;0.68;0.68;;;21.50;54.70;;;;;;6214725;28;20026;-70
2022/06/11 04:49:39;;;;;;;0.77;0.60;;;21.50;54.70;;;;;;6194288;28;20046;-70
2022/06/11 04:52:39;;;;;;;0.52;0.40;;;21.50;54.80;;;;;;6205536;28;20014;-71
2022/06/11 04:55:40;;;;;;;0.45;0.45;;;21.50;54.70;;;;;;6218751;28;20077;-71
2022/06/11 04:58:41;;;;;;;0.70;0.65;;;21.50;54.80;;;;;;6199097;28;20584;-71
2022/06/11 05:01:43;;;;;;;0.50;0.50;;;21.50;54.70;;;;;;6200114;28;20100;-70
2022/06/11 05:04:43;;;;;;;0.70;0.50;;;21.50;54.80;;;;;;6221533;28;20022;-71
2022/06/11 05:07:45;;;;;;;0.50;0.50;;;21.50;54.70;;;;;;6212892;28;20022;-71
2022/06/11 05:10:46;;;;;;;0.80;0.60;;;21.50;54.70;;;;;;6198043;28;20026;-71
2022/06/11 05:13:47;;;;;;;0.60;0.50;;;21.50;54.70;;;;;;6215900;28;20034;-70
2022/06/11 05:16:48;;;;;;;0.90;0.70;;;21.50;54.70;;;;;;6221721;28;20030;-71
2022/06/11 05:19:49;;;;;;;0.80;0.60;;;21.50;54.70;;;;;;6197760;28;20034;-71
2022/06/11 05:22:50;;;;;;;0.52;0.52;;;21.50;54.80;;;;;;6206842;28;20500;-71
2022/06/11 05:25:50;;;;;;;0.93;0.60;;;21.50;54.80;;;;;;6222315;28;20018;-71
2022/06/11 05:28:51;;;;;;;0.85;0.65;;;21.50;54.80;;;;;;6206091;28;20026;-71
2022/06/11 05:31:52;;;;;;;0.50;0.50;;;21.50;54.70;;;;;;6195492;28;20053;-71
2022/06/11 05:34:53;;;;;;;0.70;0.65;;;21.50;54.80;;;;;;6197420;28;20050;-71
2022/06/11 05:37:57;;;;;;;0.68;0.52;;;21.50;54.80;;;;;;6203677;28;20033;-71
2022/06/11 05:40:58;;;;;;;0.85;0.63;;;21.50;54.80;;;;;;6220798;28;20033;-71
2022/06/11 05:43:59;;;;;;;1.23;0.73;;;21.50;54.80;;;;;;6207096;28;20219;-71
2022/06/11 05:47:00;;;;;;;0.80;0.60;;;21.50;55.50;;;;;;6197746;28;20115;-71
2022/06/11 05:50:02;;;;;;;1.25;0.68;;;21.50;54.80;;;;;;6220631;28;20428;-71
2022/06/11 05:53:04;;;;;;;0.88;0.55;;;21.50;55.50;;;;;;6215192;28;20053;-71
2022/06/11 05:56:05;;;;;;;0.60;0.60;;;21.50;54.90;;;;;;6197220;28;20110;-71
2022/06/11 05:59:12;;;;;;;0.57;0.57;;;21.50;54.80;;;;;;6197539;28;20022;-71
2022/06/11 06:02:17;;;;;;;0.60;0.47;;;21.50;54.80;;;;;;6196093;28;20035;-71
2022/06/11 06:05:25;;;;;;;0.70;0.57;;;21.50;54.80;;;;;;6219267;28;20040;-71
2022/06/11 06:08:26;;;;;;;1.10;0.57;;;21.50;54.80;;;;;;6213772;28;20050;-71
2022/06/11 06:11:27;;;;;;;0.52;0.52;;;21.50;54.80;;;;;;6196539;28;20025;-71
2022/06/11 06:14:28;;;;;;;0.47;0.47;;;21.50;54.80;;;;;;6211400;28;20028;-71
2022/06/11 06:17:29;;;;;;;0.57;0.57;;;21.50;54.80;;;;;;6220604;28;20095;-72
2022/06/11 06:20:29;;;;;;;0.50;0.50;;;21.50;54.80;;;;;;6197617;28;20638;-71
2022/06/11 06:23:34;;;;;;;0.40;0.40;;;21.50;54.80;;;;;;6201557;28;20038;-71
2022/06/11 06:26:35;;;;;;;0.77;0.60;;;21.50;54.70;;;;;;6220379;28;20030;-71
2022/06/11 06:29:35;;;;;;;0.63;0.60;;;21.50;54.80;;;;;;6206208;28;20505;-71
2022/06/11 06:32:36;;;;;;;1.20;0.60;;;21.50;54.80;;;;;;6195137;28;20113;-71
2022/06/11 06:35:37;;;;;;;0.50;0.50;;;21.50;54.80;;;;;;6194679;28;20647;-72
2022/06/11 06:38:39;;;;;;;0.60;0.50;;;21.50;54.80;;;;;;6200481;28;20057;-71
2022/06/11 06:41:39;;;;;;;0.55;0.55;;;21.50;54.80;;;;;;6219959;28;20022;-71
2022/06/11 06:44:40;;;;;;;1.27;0.70;;;21.50;54.80;;;;;;6207589;28;20397;-71
2022/06/11 06:47:41;;;;;;;0.70;0.60;;;21.50;54.80;;;;;;6195978;28;20029;-71
2022/06/11 06:50:42;;;;;;;0.57;0.50;;;21.50;54.80;;;;;;6216720;28;20025;-71
2022/06/11 06:53:44;;;;;;;0.77;0.70;;;21.50;54.80;;;;;;6213747;28;20048;-71
2022/06/11 06:56:44;;;;;;;0.60;0.50;;;21.50;54.80;;;;;;6220028;28;20037;-71
2022/06/11 06:59:45;;;;;;;0.77;0.60;;;21.50;54.80;;;;;;6208589;28;20022;-71
2022/06/11 07:02:47;;;;;;;1.73;0.60;;;21.50;54.80;;;;;;6195457;28;20025;-71
2022/06/11 07:05:51;;;;;;;0.70;0.50;;;21.50;54.80;;;;;;6209103;28;20022;-71
2022/06/11 07:08:53;;;;;;;0.80;0.60;;;21.50;54.80;;;;;;6206272;28;20065;-71
2022/06/11 07:11:54;;;;;;;1.05;0.80;;;21.50;54.80;;;;;;6216841;28;20025;-71
2022/06/11 07:14:54;;;;;;;0.85;0.70;;;21.50;54.80;;;;;;6207903;28;20033;-71
2022/06/11 07:18:08;;;;;;;0.70;0.68;;;21.50;54.80;;;;;;6202373;28;20073;-71
2022/06/11 07:21:22;;;;;;;1.00;0.70;;;21.50;54.80;;;;;;6197147;28;20117;-72
2022/06/11 07:24:27;;;;;;;1.17;0.88;;;21.50;54.80;;;;;;6197534;28;20021;-71
2022/06/11 07:27:32;;;;;;;0.95;0.70;;;21.50;54.80;;;;;;6218417;28;20026;-71
2022/06/11 07:30:35;;;;;;;0.77;0.70;;;21.50;54.80;;;;;;6203637;28;20532;-71
2022/06/11 07:33:36;;;;;;;0.52;0.52;;;21.50;54.80;;;;;;6193237;28;20424;-71
2022/06/11 07:36:37;;;;;;;0.93;0.77;;;21.50;54.80;;;;;;6193235;28;20027;-71
2022/06/11 07:39:37;;;;;;;0.93;0.68;;;21.50;54.80;;;;;;6214342;28;20025;-71
2022/06/11 07:42:38;;;;;;;0.90;0.80;;;21.50;54.90;;;;;;6217613;28;20793;-72
2022/06/11 07:45:41;;;;;;;0.63;0.60;;;21.50;54.80;;;;;;6199824;28;20029;-71
2022/06/11 07:48:42;;;;;;;0.88;0.75;;;21.50;54.80;;;;;;6217650;28;20468;-71
2022/06/11 07:51:43;;;;;;;0.95;0.80;;;21.50;54.80;;;;;;6217538;28;20072;-71
2022/06/11 07:54:44;;;;;;;1.17;1.05;;;21.50;54.80;;;;;;6214977;28;20076;-71
2022/06/11 07:57:45;;;;;;;0.80;0.80;;;21.50;54.80;;;;;;6215959;28;20029;-71
2022/06/11 08:00:48;;;;;;;1.00;0.80;;;21.50;54.80;;;;;;6207908;28;20027;-72
2022/06/11 08:03:49;;;;;;;0.80;0.70;;;21.50;54.80;;;;;;6208041;28;20026;-71
2022/06/11 08:06:50;;;;;;;1.40;0.90;;;21.50;54.80;;;;;;6211606;28;20084;-72
2022/06/11 08:09:50;;;;;;;1.40;1.00;;;21.50;54.80;;;;;;6214629;28;20481;-71
2022/06/11 08:12:51;;;;;;;1.17;1.00;;;21.50;54.80;;;;;;6192724;28;20058;-71
2022/06/11 08:15:53;;;;;;;0.80;0.70;;;21.50;54.80;;;;;;6185699;28;20738;-71
2022/06/11 08:18:54;;;;;;;1.23;1.08;;;21.50;54.80;;;;;;6217111;28;20034;-71
2022/06/11 08:21:56;;;;;;;0.77;0.70;;;21.50;54.80;;;;;;6199100;28;20027;-71
2022/06/11 08:24:57;;;;;;;1.10;0.90;;;21.50;54.80;;;;;;6193838;28;20076;-71
2022/06/11 08:27:59;;;;;;;1.98;1.20;;;21.50;54.80;;;;;;6205089;28;20169;-71
2022/06/11 08:31:04;;;;;;;1.90;1.15;;;21.50;54.80;;;;;;6180803;28;20093;-71
2022/06/11 08:34:05;;;;;;;1.45;1.13;;;21.50;54.80;;;;;;6193965;28;20058;-72
2022/06/11 08:37:06;;;;;;;1.90;1.20;;;21.50;54.80;;;;;;6196260;28;20057;-72
2022/06/11 08:40:12;;;;;;;1.60;1.15;;;21.50;54.80;;;;;;6197925;28;20033;-72
2022/06/11 08:43:15;;;;;;;1.48;0.93;;;21.50;54.80;;;;;;6221143;28;20033;-71
2022/06/11 08:46:22;;;;;;;1.50;1.20;;;21.50;54.80;;;;;;6212478;28;20436;-72
2022/06/11 08:49:46;;;;;;;1.40;1.00;;;21.50;54.80;;;;;;6179950;28;20034;-72
2022/06/11 08:52:47;;;;;;;1.65;1.05;;;21.50;54.80;;;;;;6212719;28;20057;-71
2022/06/11 08:55:48;;;;;;;1.50;1.15;;;21.50;54.80;;;;;;6217461;28;20026;-71
2022/06/11 08:58:56;;;;;;;1.73;1.25;;;21.50;54.70;;;;;;6196473;28;20038;-71
2022/06/11 09:02:25;;;;;;;1.40;1.15;;;21.50;54.70;;;;;;6208816;28;20520;-71
2022/06/11 09:05:40;;;;;;;1.50;1.30;;;21.50;54.80;;;;;;6219868;28;20547;-71
2022/06/11 09:08:53;;;;;;;1.25;1.15;;;21.50;54.80;;;;;;6218367;28;20057;-71
2022/06/11 09:11:53;;;;;;;1.65;1.23;;;21.50;54.80;;;;;;6201734;28;20031;-71
2022/06/11 09:15:23;;;;;;;1.52;1.23;;;21.50;54.80;;;;;;6200302;28;20034;-71
2022/06/11 09:18:30;;;;;;;1.88;1.50;;;21.50;54.70;;;;;;6209168;28;20108;-72
2022/06/11 09:21:57;;;;;;;2.00;1.40;;;21.50;54.80;;;;;;6214308;28;20027;-71
2022/06/11 09:25:19;;;;;;;1.35;1.15;;;21.50;54.80;;;;;;6207633;28;20018;-70
2022/06/11 09:28:23;;;;;;;2.15;1.50;;;21.50;54.80;;;;;;6196665;28;20438;-70
2022/06/11 09:31:37;;;;;;;1.77;1.40;;;21.50;54.80;;;;;;6184336;28;20529;-70
2022/06/11 09:34:53;;;;;;;1.55;1.13;;;21.50;54.80;;;;;;6195418;28;20520;-70
2022/06/11 09:38:02;;;;;;;2.25;1.50;;;21.50;54.80;;;;;;6195177;28;20046;-71
2022/06/11 09:41:15;;;;;;;2.38;1.48;;;21.50;54.70;;;;;;6195936;28;20465;-70
2022/06/11 09:44:25;;;;;;;1.63;1.23;;;21.50;54.80;;;;;;6194549;28;20058;-70
2022/06/11 09:47:35;;;;;;;2.13;1.45;;;21.50;54.80;;;;;;6195406;28;20022;-70
2022/06/11 09:50:44;;;;;;;1.67;1.27;;;21.50;54.80;;;;;;6195654;28;20068;-69
2022/06/11 09:54:16;;;;;;;2.05;1.40;;;21.50;54.80;;;;;;6214203;28;20030;-70
2022/06/11 09:57:29;;;;;;;1.55;1.20;;;21.50;54.80;;;;;;6211722;28;20161;-70
2022/06/11 10:00:42;;;;;;;2.45;1.55;;;21.50;54.90;;;;;;6194893;28;20026;-70
2022/06/11 10:03:59;;;;;;;1.85;1.58;;;21.50;54.80;;;;;;6218088;28;20015;-70
2022/06/11 10:07:13;;;;;;;1.75;1.40;;;21.50;54.80;;;;;;6213557;28;20505;-70
2022/06/11 10:10:22;;;;;;;1.83;1.40;;;21.50;54.80;;;;;;6218482;28;20496;-70
2022/06/11 10:14:28;;;;;;;2.03;1.60;;;21.50;54.80;;;;;;6203445;28;20053;-71
2022/06/11 10:17:34;;;;;;;2.63;1.73;;;21.50;54.80;;;;;;6116380;29;20525;-70
2022/06/11 10:20:50;;;;;;;2.25;1.58;;;21.50;54.80;;;;;;6127670;28;20383;-70
2022/06/11 10:24:00;;;;;;;1.98;1.50;;;21.50;54.70;;;;;;6200974;28;20030;-72
2022/06/11 10:27:11;;;;;;;3.10;1.70;;;21.50;54.80;;;;;;6194929;28;20065;-72
2022/06/11 10:30:34;;;;;;;2.33;1.80;;;21.60;55.00;;;;;;6215445;28;20092;-72
2022/06/11 10:33:42;;;;;;;2.83;1.98;;;21.60;55.20;;;;;;6192963;28;20105;-73
2022/06/11 10:36:52;;;;;;;6.43;1.95;;;21.60;55.70;;;;;;6193356;28;20525;-73
2022/06/11 10:40:00;;;;;;;1.98;1.67;;;21.60;55.60;;;;;;6216778;28;20524;-73
2022/06/11 10:43:48;;;;;;;2.00;1.45;;;21.60;55.20;;;;;;6209623;28;20073;-73
2022/06/11 10:46:49;;;;;;;3.13;1.63;;;21.60;55.20;;;;;;6118177;29;20068;-72
2022/06/11 10:50:09;;;;;;;2.85;1.75;;;21.50;55.00;;;;;;6118387;29;20039;-73
2022/06/11 10:53:15;;;;;;;2.85;1.65;;;21.50;55.00;;;;;;6210793;28;20089;-72
2022/06/11 10:56:26;;;;;;;3.15;1.98;;;21.50;55.00;;;;;;6193569;28;20026;-73
2022/06/11 10:59:32;;;;;;;1.73;1.48;;;21.50;55.00;;;;;;6186850;28;20021;-72
2022/06/11 11:02:44;;;;;;;2.20;1.70;;;21.50;55.00;;;;;;6210295;28;20038;-72
2022/06/11 11:06:16;;;;;;;2.50;1.65;;;21.50;54.90;;;;;;6196021;28;20035;-72
2022/06/11 11:09:22;;;;;;;2.00;1.52;;;21.50;54.90;;;;;;6207112;28;20029;-72
2022/06/11 11:12:35;;;;;;;2.72;1.70;;;21.50;54.90;;;;;;6216970;28;20037;-73
2022/06/11 11:15:41;;;;;;;2.75;1.65;;;21.50;54.90;;;;;;6192286;28;20026;-72
2022/06/11 11:19:04;;;;;;;2.20;1.73;;;21.50;54.90;;;;;;6200727;28;20088;-72
2022/06/11 11:22:05;;;;;;;2.47;1.80;;;21.50;54.90;;;;;;6213727;28;20506;-72
2022/06/11 11:25:15;;;;;;;2.50;1.70;;;21.50;54.90;;;;;;6197011;28;20117;-73
2022/06/11 11:28:24;;;;;;;2.28;1.58;;;21.50;54.90;;;;;;6196798;28;20026;-72
2022/06/11 11:31:38;;;;;;;2.95;2.00;;;21.50;54.90;;;;;;6217876;28;20388;-72
2022/06/11 11:34:46;;;;;;;2.08;1.70;;;21.50;54.90;;;;;;6203687;28;20058;-72
2022/06/11 11:37:56;;;;;;;2.55;1.92;;;21.50;54.90;;;;;;6193933;28;20076;-72
2022/06/11 11:41:02;;;;;;;2.20;1.90;;;21.50;54.90;;;;;;6190431;28;20029;-72
2022/06/11 11:44:03;;;;;;;1.92;1.63;;;21.50;54.90;;;;;;6200591;28;20088;-73
2022/06/11 11:47:16;;;;;;;2.47;1.90;;;21.50;54.90;;;;;;6217387;28;20030;-74
2022/06/11 11:50:27;;;;;;;2.50;1.98;;;21.50;54.90;;;;;;6215989;28;20022;-72
2022/06/11 11:53:34;;;;;;;2.28;1.73;;;21.50;54.90;;;;;;6202471;28;20018;-72
2022/06/11 11:56:56;;;;;;;3.03;2.10;;;21.50;54.90;;;;;;6218228;28;20028;-72
2022/06/11 12:00:18;;;;;;;2.45;1.70;;;21.50;54.90;;;;;;6205780;28;20027;-72
2022/06/11 12:03:42;;;;;;;2.90;2.10;;;21.50;54.80;;;;;;6217099;28;20540;-72
2022/06/11 12:06:53;;;;;;;1.90;1.65;;;21.50;54.80;;;;;;6193681;28;20046;-72
2022/06/11 12:09:58;;;;;;;2.88;1.90;;;21.50;54.80;;;;;;6209842;28;20036;-73
2022/06/11 12:12:59;;;;;;;3.30;1.83;;;21.50;54.80;;;;;;6223606;28;20100;-72
2022/06/11 12:16:04;;;;;;;2.63;2.00;;;21.50;54.80;;;;;;6223583;28;20049;-72
2022/06/11 12:19:19;;;;;;;2.33;1.75;;;21.50;54.80;;;;;;6223608;28;20026;-72
2022/06/11 12:22:23;;;;;;;;;;;21.50;54.80;;;;;;6221208;28;20030;-73
2022/06/11 12:25:34;;;;;;;2.20;1.90;;;21.50;54.80;;;;;;6210421;28;19906;-72
2022/06/11 12:28:46;;;;;;;3.15;2.08;;;21.50;54.80;;;;;;6199296;28;20023;-72
2022/06/11 12:31:47;;;;;;;2.53;1.73;;;21.50;54.80;;;;;;6218889;28;20034;-72
2022/06/11 12:34:50;;;;;;;2.30;1.70;;;21.50;54.80;;;;;;6215636;28;20767;-72
2022/06/11 12:38:03;;;;;;;3.08;2.08;;;21.60;54.90;;;;;;6198997;28;20114;-72
2022/06/11 12:41:16;;;;;;;2.50;1.90;;;21.60;54.80;;;;;;6197778;28;20037;-73
2022/06/11 12:44:28;;;;;;;2.65;2.17;;;21.60;54.90;;;;;;6198611;28;20046;-73
2022/06/11 12:47:50;;;;;;;2.38;1.90;;;21.50;54.70;;;;;;6222242;28;20591;-72
2022/06/11 12:51:01;;;;;;;2.60;1.90;;;21.60;54.80;;;;;;6208728;28;20034;-72
2022/06/11 12:54:08;;;;;;;3.63;2.03;;;21.60;54.80;;;;;;6213114;28;20084;-72
2022/06/11 12:57:18;;;;;;;3.25;2.10;;;21.60;54.80;;;;;;6198413;28;20041;-72
2022/06/11 13:00:47;;;;;;;2.42;1.90;;;21.50;54.60;;;;;;6209270;28;20034;-72
2022/06/11 13:04:00;;;;;;;3.25;2.22;;;21.60;54.70;;;;;;6203357;28;20057;-73
2022/06/11 13:07:25;;;;;;;4.43;2.15;;;21.60;54.70;;;;;;6222418;28;20026;-72
2022/06/11 13:10:41;;;;;;;3.30;2.13;;;21.60;54.70;;;;;;6214626;28;20105;-73
2022/06/11 13:13:48;;;;;;;2.88;2.30;;;21.60;54.70;;;;;;6198351;28;20720;-72
2022/06/11 13:17:12;;;;;;;5.57;2.28;;;21.60;54.70;;;;;;6215654;28;20022;-73
2022/06/11 13:20:32;;;;;;;2.88;2.10;;;21.60;54.70;;;;;;6216704;28;20026;-73
2022/06/11 13:23:51;;;;;;;3.22;2.03;;;21.60;54.60;;;;;;6196919;28;20034;-73
2022/06/11 13:27:21;;;;;;;4.93;2.08;;;21.60;54.70;;;;;;6205066;28;20018;-73
2022/06/11 13:30:59;;;;;;;3.25;2.20;;;21.60;54.60;;;;;;6196750;28;20603;-73
2022/06/11 13:34:28;;;;;;;4.47;2.40;;;21.60;54.60;;;;;;6197544;28;20141;-72
2022/06/11 13:38:06;;;;;;;3.88;2.38;;;21.60;54.70;;;;;;6194368;28;20085;-73
2022/06/11 13:41:22;;;;;;;4.57;2.55;;;21.60;54.60;;;;;;6182513;28;20045;-73
2022/06/11 13:44:48;;;;;;;3.88;2.40;;;21.60;54.70;;;;;;6221233;28;20034;-73
2022/06/11 13:47:55;;;;;;;3.88;2.58;;;21.60;54.70;;;;;;6199321;28;20468;-73
2022/06/11 13:51:04;;;;;;;3.95;2.58;;;21.60;54.70;;;;;;6203058;28;20022;-73
2022/06/11 13:58:05;;;;;;;4.70;2.55;;;21.60;54.70;;;;;;6217470;28;20066;-73
2022/06/11 14:01:09;;;;;;;3.38;2.50;;;21.60;54.70;;;;;;6202610;28;20022;-73
2022/06/11 14:04:21;;;;;;;6.35;2.22;;;21.60;54.70;;;;;;6220850;28;20030;-72
2022/06/11 14:07:25;;;;;;;3.30;2.28;;;21.60;54.70;;;;;;6220777;28;20533;-73
2022/06/11 14:10:53;;;;;;;3.55;2.50;;;21.60;54.70;;;;;;6220250;28;20518;-73
2022/06/11 14:14:00;;;;;;;3.22;2.30;;;21.60;54.70;;;;;;6195725;28;20433;-73
2022/06/11 14:17:02;;;;;;;3.75;2.13;;;21.60;54.70;;;;;;6207545;28;20143;-73
2022/06/11 14:20:28;;;;;;;4.28;2.35;;;21.60;54.70;;;;;;6220976;28;20041;-73
2022/06/11 14:23:29;;;;;;;3.40;2.38;;;21.60;54.70;;;;;;6194419;28;20125;-72
2022/06/11 14:26:29;;;;;;;4.45;2.53;;;21.60;54.70;;;;;;6196182;28;20562;-73
2022/06/11 14:29:34;;;;;;;4.45;2.47;;;21.60;54.70;;;;;;6196230;28;20516;-73
2022/06/11 14:32:42;;;;;;;;;;;21.60;54.70;;;;;;6196295;28;20030;-73
2022/06/11 14:35:49;;;;;;;3.45;2.38;;;21.60;54.70;;;;;;6195712;28;19921;-72
2022/06/11 14:38:57;;;;;;;4.07;2.40;;;21.60;54.70;;;;;;6219299;28;20512;-74
2022/06/11 14:42:12;;;;;;;5.20;2.92;;;21.60;54.70;;;;;;6212730;28;20029;-73
2022/06/11 14:45:31;;;;;;;;;;;21.60;54.70;;;;;;6194134;28;20023;-72
2022/06/11 14:48:41;;;;;;;3.05;2.53;;;21.60;54.70;;;;;;6214926;28;19914;-72
2022/06/11 14:52:02;;;;;;;4.28;2.67;;;21.60;54.70;;;;;;6215995;28;20077;-72
2022/06/11 14:55:31;;;;;;;14.85;2.80;;;21.60;54.80;;;;;;6195473;28;20701;-72
2022/06/11 14:58:57;;;;;;;4.28;2.67;;;21.60;54.80;;;;;;6208920;28;20061;-73
2022/06/11 15:02:20;;;;;;;8.00;2.42;;;21.60;54.80;;;;;;6188810;28;20034;-72
2022/06/11 15:05:26;;;;;;;3.70;2.55;;;21.60;54.80;;;;;;6219836;28;20124;-73
2022/06/11 15:08:42;;;;;;;4.05;2.33;;;21.60;54.80;;;;;;6219657;28;20386;-73
2022/06/11 15:11:54;;;;;;;3.70;2.60;;;21.60;54.70;;;;;;6217442;28;20045;-72
2022/06/11 15:15:02;;;;;;;4.32;2.63;;;21.60;54.80;;;;;;6211400;28;20079;-72
2022/06/11 15:18:41;;;;;;;5.85;2.53;;;21.60;54.80;;;;;;6217888;28;20173;-72
2022/06/11 15:21:49;;;;;;;5.03;2.53;;;21.60;54.70;;;;;;6200249;28;20456;-72
2022/06/11 15:25:11;;;;;;;5.18;2.63;;;21.60;54.80;;;;;;6194356;28;20137;-72
2022/06/11 15:28:12;;;;;;;4.03;2.50;;;21.60;54.80;;;;;;6193840;28;20084;-72
2022/06/11 15:31:13;;;;;;;3.40;2.25;;;21.60;54.90;;;;;;6194500;28;20470;-71
2022/06/11 15:34:23;;;;;;;6.07;2.67;;;21.60;55.00;;;;;;6193588;28;20547;-72
2022/06/11 15:37:36;;;;;;;4.93;3.33;;;21.60;55.00;;;;;;6198274;28;20033;-72
2022/06/11 15:40:40;;;;;;;4.93;2.92;;;21.60;55.00;;;;;;6219128;28;20428;-72
2022/06/11 15:43:48;;;;;;;6.68;3.15;;;21.60;55.00;;;;;;6203426;28;20014;-72
2022/06/11 15:51:01;;;;;;;3.90;2.72;;;21.60;55.00;;;;;;6193828;28;20101;-72
2022/06/11 15:58:22;;;;;;;6.38;2.78;;;21.60;54.90;;;;;;6214991;28;20034;-72
2022/06/11 16:05:29;;;;;;;6.55;2.80;;;21.60;55.00;;;;;;6217901;28;20022;-72
2022/06/11 16:09:07;;;;;;;4.95;2.95;;;21.60;55.00;;;;;;6218841;28;20125;-72
2022/06/11 16:12:21;;;;;;;3.88;2.70;;;21.60;55.00;;;;;;6218446;28;20030;-72
2022/06/11 16:15:27;;;;;;;6.93;2.90;;;21.60;55.10;;;;;;6195324;28;20019;-72
2022/06/11 16:18:31;;;;;;;6.10;3.28;;;21.70;54.90;;;;;;6199766;28;20042;-72
2022/06/11 16:21:32;;;;;;;5.23;3.60;;;21.70;54.90;;;;;;6200362;28;20033;-72
2022/06/11 16:24:38;;;;;;;5.80;3.78;;;21.70;55.00;;;;;;6217161;28;20030;-72
2022/06/11 16:32:32;;;;;;;5.20;4.03;;;21.70;54.80;;;;;;6193962;28;20081;-72
2022/06/11 16:35:55;;;;;;;5.30;3.92;;;21.60;54.80;;;;;;6198965;28;20054;-71
2022/06/11 16:38:58;;;;;;;6.68;3.67;;;21.70;54.90;;;;;;6217481;28;20519;-72
2022/06/11 16:45:28;;;;;;;5.40;3.97;;;21.70;54.90;;;;;;6198889;28;20022;-73
2022/06/11 16:48:43;;;;;;;5.72;4.10;;;21.70;54.90;;;;;;6196611;28;20018;-72
2022/06/11 16:58:54;;;;;;;7.00;3.63;;;21.70;54.90;;;;;;6221814;28;20153;-72